SLEE weather

El Escondido Airport
Tesoro, Tarija Department, Bolivia

Public forecast

Using degrees Celsius for public forecast. Weather courtesy of forecast.io.

METAR (pilot weather report)

Report is more than 2 hours old.

Closest report is Teniente Coronel Rafael Pab√≥n Airport, 13.1 nm (24.2 km) NNW. Retrieved 2019/07/17 20:00 UTC (4 hours ago):

SLVM 172000Z 00000KT 9999 SCT070 24/12 Q1016

TAF (pilot weather forecast)

Forecast is more than 12 hours old.

Closest forecast is Yacuiba Airport, 34.0 nm (63.0 km) SSW. Retrieved 2019/05/06 00:28 UTC (2 months ago):

TAF SLYA 062200Z 0700/0724 00000KT 9999 SCT015 SCT070 TX25/0719Z TN16 /0711Z BECMG 0704/0706 5000 DZ BKN005 BKN070 BECMG 0711/0713 9999 NSW SCT010 BKN070